sensor_id;sensor_type;location;lat;lon;timestamp;temperature;humidity
43185;DHT22;28803;52.308;19.096;2023-07-29T00:01:45;15.00;99.90
43185;DHT22;28803;52.308;19.096;2023-07-29T00:04:13;15.00;99.90
43185;DHT22;28803;52.308;19.096;2023-07-29T00:06:40;15.00;99.90
43185;DHT22;28803;52.308;19.096;2023-07-29T00:09:07;14.90;99.90
43185;DHT22;28803;52.308;19.096;2023-07-29T00:11:38;14.90;99.90
43185;DHT22;28803;52.308;19.096;2023-07-29T00:14:06;14.90;99.90
43185;DHT22;28803;52.308;19.096;2023-07-29T00:16:33;14.90;99.90
43185;DHT22;28803;52.308;19.096;2023-07-29T00:19:02;14.90;99.90
43185;DHT22;28803;52.308;19.096;2023-07-29T00:21:30;14.80;99.90
43185;DHT22;28803;52.308;19.096;2023-07-29T00:23:57;14.80;99.90
43185;DHT22;28803;52.308;19.096;2023-07-29T00:26:25;14.80;99.90
43185;DHT22;28803;52.308;19.096;2023-07-29T00:28:58;14.70;99.90
43185;DHT22;28803;52.308;19.096;2023-07-29T00:31:25;14.70;99.90
43185;DHT22;28803;52.308;19.096;2023-07-29T00:33:52;14.70;99.90
43185;DHT22;28803;52.308;19.096;2023-07-29T00:36:20;14.70;99.90
43185;DHT22;28803;52.308;19.096;2023-07-29T00:38:47;14.60;99.90
43185;DHT22;28803;52.308;19.096;2023-07-29T00:41:15;14.60;99.90
43185;DHT22;28803;52.308;19.096;2023-07-29T00:43:42;14.60;99.90
43185;DHT22;28803;52.308;19.096;2023-07-29T00:46:17;14.70;99.90
43185;DHT22;28803;52.308;19.096;2023-07-29T00:48:46;14.80;99.90
43185;DHT22;28803;52.308;19.096;2023-07-29T00:51:13;14.90;99.90
43185;DHT22;28803;52.308;19.096;2023-07-29T00:53:40;14.90;99.90
43185;DHT22;28803;52.308;19.096;2023-07-29T00:56:10;15.00;99.90
43185;DHT22;28803;52.308;19.096;2023-07-29T00:58:38;15.10;99.90
43185;DHT22;28803;52.308;19.096;2023-07-29T01:01:05;15.10;99.90
43185;DHT22;28803;52.308;19.096;2023-07-29T01:03:34;15.10;99.90
43185;DHT22;28803;52.308;19.096;2023-07-29T01:15:29;14.90;99.90
43185;DHT22;28803;52.308;19.096;2023-07-29T01:18:07;14.90;99.90
43185;DHT22;28803;52.308;19.096;2023-07-29T01:20:41;14.90;99.90
43185;DHT22;28803;52.308;19.096;2023-07-29T01:23:08;15.00;99.90
43185;DHT22;28803;52.308;19.096;2023-07-29T01:25:36;15.10;99.90
43185;DHT22;28803;52.308;19.096;2023-07-29T01:28:03;15.10;99.90
43185;DHT22;28803;52.308;19.096;2023-07-29T01:30:37;15.10;99.90
43185;DHT22;28803;52.308;19.096;2023-07-29T01:33:20;15.10;99.90
43185;DHT22;28803;52.308;19.096;2023-07-29T01:35:52;15.10;99.90
43185;DHT22;28803;52.308;19.096;2023-07-29T01:38:28;15.10;99.90
43185;DHT22;28803;52.308;19.096;2023-07-29T01:41:01;15.10;99.90
43185;DHT22;28803;52.308;19.096;2023-07-29T01:43:32;15.10;99.90
43185;DHT22;28803;52.308;19.096;2023-07-29T01:46:00;15.20;99.90
43185;DHT22;28803;52.308;19.096;2023-07-29T01:48:28;15.10;99.90
43185;DHT22;28803;52.308;19.096;2023-07-29T01:50:57;15.10;99.90
43185;DHT22;28803;52.308;19.096;2023-07-29T01:53:25;15.20;99.90
43185;DHT22;28803;52.308;19.096;2023-07-29T01:55:52;15.20;99.90
43185;DHT22;28803;52.308;19.096;2023-07-29T01:58:19;15.20;99.90
43185;DHT22;28803;52.308;19.096;2023-07-29T02:00:47;15.20;99.90
43185;DHT22;28803;52.308;19.096;2023-07-29T02:03:14;15.30;99.90
43185;DHT22;28803;52.308;19.096;2023-07-29T02:05:41;15.40;99.90
43185;DHT22;28803;52.308;19.096;2023-07-29T02:08:10;15.40;99.90
43185;DHT22;28803;52.308;19.096;2023-07-29T02:10:39;15.40;99.90
43185;DHT22;28803;52.308;19.096;2023-07-29T02:13:06;15.40;99.90
43185;DHT22;28803;52.308;19.096;2023-07-29T02:15:34;15.40;99.90
43185;DHT22;28803;52.308;19.096;2023-07-29T02:18:01;15.50;99.90
43185;DHT22;28803;52.308;19.096;2023-07-29T02:20:29;15.50;99.90
43185;DHT22;28803;52.308;19.096;2023-07-29T02:22:56;15.50;99.90
43185;DHT22;28803;52.308;19.096;2023-07-29T02:25:23;15.50;99.90
43185;DHT22;28803;52.308;19.096;2023-07-29T02:27:51;15.60;99.90
43185;DHT22;28803;52.308;19.096;2023-07-29T02:30:18;15.50;99.90
43185;DHT22;28803;52.308;19.096;2023-07-29T02:32:45;15.50;99.90
43185;DHT22;28803;52.308;19.096;2023-07-29T02:35:13;15.50;99.90
43185;DHT22;28803;52.308;19.096;2023-07-29T02:37:40;15.50;99.90
43185;DHT22;28803;52.308;19.096;2023-07-29T02:40:08;15.50;99.90
43185;DHT22;28803;52.308;19.096;2023-07-29T02:42:35;15.50;99.90
43185;DHT22;28803;52.308;19.096;2023-07-29T02:45:03;15.40;99.90
43185;DHT22;28803;52.308;19.096;2023-07-29T02:47:30;15.40;99.90
43185;DHT22;28803;52.308;19.096;2023-07-29T02:49:57;15.40;99.90
43185;DHT22;28803;52.308;19.096;2023-07-29T02:52:24;15.40;99.90
43185;DHT22;28803;52.308;19.096;2023-07-29T02:54:52;15.40;99.90
43185;DHT22;28803;52.308;19.096;2023-07-29T02:57:20;15.40;99.90
43185;DHT22;28803;52.308;19.096;2023-07-29T02:59:47;15.40;99.90
43185;DHT22;28803;52.308;19.096;2023-07-29T03:02:14;15.40;99.90
43185;DHT22;28803;52.308;19.096;2023-07-29T03:04:43;15.40;99.90
43185;DHT22;28803;52.308;19.096;2023-07-29T03:07:10;15.40;99.90
43185;DHT22;28803;52.308;19.096;2023-07-29T03:09:37;15.40;99.90
43185;DHT22;28803;52.308;19.096;2023-07-29T03:12:04;15.40;99.90
43185;DHT22;28803;52.308;19.096;2023-07-29T03:14:33;15.40;99.90
43185;DHT22;28803;52.308;19.096;2023-07-29T03:17:04;15.50;99.90
43185;DHT22;28803;52.308;19.096;2023-07-29T03:19:31;15.50;99.90
43185;DHT22;28803;52.308;19.096;2023-07-29T03:21:58;15.60;99.90
43185;DHT22;28803;52.308;19.096;2023-07-29T03:24:26;15.60;99.90
43185;DHT22;28803;52.308;19.096;2023-07-29T03:26:54;15.70;99.90
43185;DHT22;28803;52.308;19.096;2023-07-29T03:29:22;15.80;99.90
43185;DHT22;28803;52.308;19.096;2023-07-29T03:31:49;15.80;99.90
43185;DHT22;28803;52.308;19.096;2023-07-29T03:34:17;15.80;99.90
43185;DHT22;28803;52.308;19.096;2023-07-29T03:36:44;15.90;99.90
43185;DHT22;28803;52.308;19.096;2023-07-29T03:39:14;15.90;99.90
43185;DHT22;28803;52.308;19.096;2023-07-29T03:41:41;15.90;99.90
43185;DHT22;28803;52.308;19.096;2023-07-29T03:44:09;15.90;99.90
43185;DHT22;28803;52.308;19.096;2023-07-29T03:46:36;15.90;99.90
43185;DHT22;28803;52.308;19.096;2023-07-29T03:49:05;15.90;99.90
43185;DHT22;28803;52.308;19.096;2023-07-29T03:51:32;15.80;99.90
43185;DHT22;28803;52.308;19.096;2023-07-29T03:54:00;15.70;99.90
43185;DHT22;28803;52.308;19.096;2023-07-29T03:56:27;15.60;99.90
43185;DHT22;28803;52.308;19.096;2023-07-29T03:59:02;15.50;99.90
43185;DHT22;28803;52.308;19.096;2023-07-29T04:01:30;15.50;99.90
43185;DHT22;28803;52.308;19.096;2023-07-29T04:03:59;15.60;99.90
43185;DHT22;28803;52.308;19.096;2023-07-29T04:06:26;15.60;99.90
43185;DHT22;28803;52.308;19.096;2023-07-29T04:08:54;15.60;99.90
43185;DHT22;28803;52.308;19.096;2023-07-29T04:11:23;15.60;99.90
43185;DHT22;28803;52.308;19.096;2023-07-29T04:13:50;15.60;99.90
43185;DHT22;28803;52.308;19.096;2023-07-29T04:16:17;15.60;99.90
43185;DHT22;28803;52.308;19.096;2023-07-29T04:18:45;15.60;99.90
43185;DHT22;28803;52.308;19.096;2023-07-29T04:21:12;15.60;99.90
43185;DHT22;28803;52.308;19.096;2023-07-29T04:23:39;15.60;99.90
43185;DHT22;28803;52.308;19.096;2023-07-29T04:26:07;15.70;99.90
43185;DHT22;28803;52.308;19.096;2023-07-29T04:28:34;15.80;99.90
43185;DHT22;28803;52.308;19.096;2023-07-29T04:31:01;15.80;99.90
43185;DHT22;28803;52.308;19.096;2023-07-29T04:33:30;15.80;99.90
43185;DHT22;28803;52.308;19.096;2023-07-29T04:36:02;16.00;99.90
43185;DHT22;28803;52.308;19.096;2023-07-29T04:38:32;16.00;99.90
43185;DHT22;28803;52.308;19.096;2023-07-29T04:41:02;16.20;99.90
43185;DHT22;28803;52.308;19.096;2023-07-29T04:43:33;16.30;99.90
43185;DHT22;28803;52.308;19.096;2023-07-29T04:46:00;16.50;99.90
43185;DHT22;28803;52.308;19.096;2023-07-29T04:48:27;16.70;99.90
43185;DHT22;28803;52.308;19.096;2023-07-29T04:50:55;16.80;99.90
43185;DHT22;28803;52.308;19.096;2023-07-29T04:53:22;17.00;99.90
43185;DHT22;28803;52.308;19.096;2023-07-29T04:55:49;17.10;99.90
43185;DHT22;28803;52.308;19.096;2023-07-29T04:58:17;17.30;99.90
43185;DHT22;28803;52.308;19.096;2023-07-29T05:00:45;17.50;99.90
43185;DHT22;28803;52.308;19.096;2023-07-29T05:03:13;17.70;99.90
43185;DHT22;28803;52.308;19.096;2023-07-29T05:05:40;17.90;99.90
43185;DHT22;28803;52.308;19.096;2023-07-29T05:08:08;18.00;99.90
43185;DHT22;28803;52.308;19.096;2023-07-29T05:10:35;18.20;99.90
43185;DHT22;28803;52.308;19.096;2023-07-29T05:13:03;18.30;99.90
43185;DHT22;28803;52.308;19.096;2023-07-29T05:15:30;18.30;99.90
43185;DHT22;28803;52.308;19.096;2023-07-29T05:17:58;18.40;99.90
43185;DHT22;28803;52.308;19.096;2023-07-29T05:20:25;18.50;99.90
43185;DHT22;28803;52.308;19.096;2023-07-29T05:22:52;18.60;99.90
43185;DHT22;28803;52.308;19.096;2023-07-29T05:25:19;18.70;99.90
43185;DHT22;28803;52.308;19.096;2023-07-29T05:27:47;19.10;99.90
43185;DHT22;28803;52.308;19.096;2023-07-29T05:30:14;19.10;99.90
43185;DHT22;28803;52.308;19.096;2023-07-29T05:32:42;19.20;99.90
43185;DHT22;28803;52.308;19.096;2023-07-29T05:35:10;19.40;95.30
43185;DHT22;28803;52.308;19.096;2023-07-29T05:37:38;19.60;61.30
43185;DHT22;28803;52.308;19.096;2023-07-29T05:40:07;19.70;24.40
43185;DHT22;28803;52.308;19.096;2023-07-29T05:42:35;19.80;1.00
43185;DHT22;28803;52.308;19.096;2023-07-29T05:45:03;20.00;1.00
43185;DHT22;28803;52.308;19.096;2023-07-29T05:47:30;20.20;1.00
43185;DHT22;28803;52.308;19.096;2023-07-29T05:49:57;20.30;1.00
43185;DHT22;28803;52.308;19.096;2023-07-29T05:52:28;20.50;99.90
43185;DHT22;28803;52.308;19.096;2023-07-29T05:54:55;20.70;99.90
43185;DHT22;28803;52.308;19.096;2023-07-29T05:57:23;20.80;99.90
43185;DHT22;28803;52.308;19.096;2023-07-29T05:59:50;21.00;99.90
43185;DHT22;28803;52.308;19.096;2023-07-29T06:02:18;21.10;99.90
43185;DHT22;28803;52.308;19.096;2023-07-29T06:04:45;21.30;91.70
43185;DHT22;28803;52.308;19.096;2023-07-29T06:07:12;21.50;27.60
43185;DHT22;28803;52.308;19.096;2023-07-29T06:09:40;21.70;1.00
43185;DHT22;28803;52.308;19.096;2023-07-29T06:12:08;22.00;99.90
43185;DHT22;28803;52.308;19.096;2023-07-29T06:14:35;22.00;99.90
43185;DHT22;28803;52.308;19.096;2023-07-29T06:17:04;22.30;99.90
43185;DHT22;28803;52.308;19.096;2023-07-29T06:19:33;22.80;1.00
43185;DHT22;28803;52.308;19.096;2023-07-29T06:22:01;22.90;99.90
43185;DHT22;28803;52.308;19.096;2023-07-29T06:24:28;23.00;99.90
43185;DHT22;28803;52.308;19.096;2023-07-29T06:26:56;23.00;99.90
43185;DHT22;28803;52.308;19.096;2023-07-29T06:31:50;24.00;1.00
43185;DHT22;28803;52.308;19.096;2023-07-29T06:34:18;24.50;99.90
43185;DHT22;28803;52.308;19.096;2023-07-29T06:36:45;25.00;1.00
43185;DHT22;28803;52.308;19.096;2023-07-29T06:39:12;25.40;99.50
43185;DHT22;28803;52.308;19.096;2023-07-29T06:41:40;25.80;1.00
43185;DHT22;28803;52.308;19.096;2023-07-29T06:46:35;26.90;99.90
43185;DHT22;28803;52.308;19.096;2023-07-29T06:49:03;27.30;50.40
43185;DHT22;28803;52.308;19.096;2023-07-29T06:51:31;27.80;99.90
43185;DHT22;28803;52.308;19.096;2023-07-29T06:54:02;28.20;99.90
43185;DHT22;28803;52.308;19.096;2023-07-29T06:56:30;28.30;85.20
43185;DHT22;28803;52.308;19.096;2023-07-29T06:58:57;28.50;1.00
43185;DHT22;28803;52.308;19.096;2023-07-29T07:01:24;29.10;21.20
43185;DHT22;28803;52.308;19.096;2023-07-29T07:03:52;29.90;99.90
43185;DHT22;28803;52.308;19.096;2023-07-29T07:06:22;30.00;1.00
43185;DHT22;28803;52.308;19.096;2023-07-29T07:08:51;30.40;76.80
43185;DHT22;28803;52.308;19.096;2023-07-29T07:11:19;30.90;1.00
43185;DHT22;28803;52.308;19.096;2023-07-29T07:13:46;31.70;99.90
43185;DHT22;28803;52.308;19.096;2023-07-29T07:16:14;32.10;1.00
43185;DHT22;28803;52.308;19.096;2023-07-29T07:18:41;32.60;99.90
43185;DHT22;28803;52.308;19.096;2023-07-29T07:21:08;32.10;99.90
43185;DHT22;28803;52.308;19.096;2023-07-29T07:23:36;32.20;99.90
43185;DHT22;28803;52.308;19.096;2023-07-29T07:26:03;32.60;99.90
43185;DHT22;28803;52.308;19.096;2023-07-29T07:28:31;31.80;1.00
43185;DHT22;28803;52.308;19.096;2023-07-29T07:30:58;30.70;99.90
43185;DHT22;28803;52.308;19.096;2023-07-29T07:33:26;31.40;99.90
43185;DHT22;28803;52.308;19.096;2023-07-29T07:35:53;32.50;99.90
43185;DHT22;28803;52.308;19.096;2023-07-29T07:38:20;33.80;99.90
43185;DHT22;28803;52.308;19.096;2023-07-29T07:40:55;34.10;99.90
43185;DHT22;28803;52.308;19.096;2023-07-29T07:43:23;34.80;99.90
43185;DHT22;28803;52.308;19.096;2023-07-29T07:45:57;35.30;99.90
43185;DHT22;28803;52.308;19.096;2023-07-29T07:48:24;35.60;5.90
43185;DHT22;28803;52.308;19.096;2023-07-29T07:50:52;35.10;59.90
43185;DHT22;28803;52.308;19.096;2023-07-29T07:53:19;35.30;1.00
43185;DHT22;28803;52.308;19.096;2023-07-29T07:55:47;35.10;1.00
43185;DHT22;28803;52.308;19.096;2023-07-29T07:58:14;34.70;1.00
43185;DHT22;28803;52.308;19.096;2023-07-29T08:00:42;35.00;1.00
43185;DHT22;28803;52.308;19.096;2023-07-29T08:03:09;35.50;1.00
43185;DHT22;28803;52.308;19.096;2023-07-29T08:05:38;34.10;16.50
43185;DHT22;28803;52.308;19.096;2023-07-29T08:08:05;35.50;99.90
43185;DHT22;28803;52.308;19.096;2023-07-29T08:10:32;35.60;99.90
43185;DHT22;28803;52.308;19.096;2023-07-29T08:12:59;35.10;69.90
43185;DHT22;28803;52.308;19.096;2023-07-29T08:15:27;32.70;1.00
43185;DHT22;28803;52.308;19.096;2023-07-29T08:17:54;30.80;1.00
43185;DHT22;28803;52.308;19.096;2023-07-29T08:20:22;33.80;1.00
43185;DHT22;28803;52.308;19.096;2023-07-29T08:22:49;33.70;1.00
43185;DHT22;28803;52.308;19.096;2023-07-29T08:25:17;36.00;34.60
43185;DHT22;28803;52.308;19.096;2023-07-29T08:27:44;37.70;99.90
43185;DHT22;28803;52.308;19.096;2023-07-29T08:30:11;38.00;99.90
43185;DHT22;28803;52.308;19.096;2023-07-29T08:32:38;37.30;99.90
43185;DHT22;28803;52.308;19.096;2023-07-29T08:35:06;37.30;99.90
43185;DHT22;28803;52.308;19.096;2023-07-29T08:37:34;37.70;99.90
43185;DHT22;28803;52.308;19.096;2023-07-29T08:40:01;38.00;43.90
43185;DHT22;28803;52.308;19.096;2023-07-29T08:42:31;39.20;99.90
43185;DHT22;28803;52.308;19.096;2023-07-29T08:45:08;40.30;99.90
43185;DHT22;28803;52.308;19.096;2023-07-29T08:47:36;41.20;1.00
43185;DHT22;28803;52.308;19.096;2023-07-29T08:50:04;41.00;1.00
43185;DHT22;28803;52.308;19.096;2023-07-29T08:52:32;40.70;81.50
43185;DHT22;28803;52.308;19.096;2023-07-29T08:54:59;41.50;99.90
43185;DHT22;28803;52.308;19.096;2023-07-29T08:57:27;41.50;99.90
43185;DHT22;28803;52.308;19.096;2023-07-29T08:59:56;38.60;96.30
43185;DHT22;28803;52.308;19.096;2023-07-29T09:02:24;38.50;99.90
43185;DHT22;28803;52.308;19.096;2023-07-29T09:04:53;37.10;99.90
43185;DHT22;28803;52.308;19.096;2023-07-29T09:07:20;38.90;1.00
43185;DHT22;28803;52.308;19.096;2023-07-29T09:09:48;38.90;1.00
43185;DHT22;28803;52.308;19.096;2023-07-29T09:12:15;38.20;42.50
43185;DHT22;28803;52.308;19.096;2023-07-29T09:14:43;36.60;1.00
43185;DHT22;28803;52.308;19.096;2023-07-29T09:17:12;35.10;1.00
43185;DHT22;28803;52.308;19.096;2023-07-29T09:19:41;36.70;1.00
43185;DHT22;28803;52.308;19.096;2023-07-29T09:22:18;34.20;99.90
43185;DHT22;28803;52.308;19.096;2023-07-29T09:24:47;33.40;1.00
43185;DHT22;28803;52.308;19.096;2023-07-29T09:27:27;33.20;1.00
43185;DHT22;28803;52.308;19.096;2023-07-29T09:29:56;32.00;99.90
43185;DHT22;28803;52.308;19.096;2023-07-29T09:32:24;32.50;99.90
43185;DHT22;28803;52.308;19.096;2023-07-29T09:34:52;32.30;99.90
43185;DHT22;28803;52.308;19.096;2023-07-29T09:37:23;33.70;99.90
43185;DHT22;28803;52.308;19.096;2023-07-29T09:39:51;36.80;1.00
43185;DHT22;28803;52.308;19.096;2023-07-29T09:42:22;37.50;99.90
43185;DHT22;28803;52.308;19.096;2023-07-29T09:44:50;36.00;99.90
43185;DHT22;28803;52.308;19.096;2023-07-29T09:47:22;34.10;99.90
43185;DHT22;28803;52.308;19.096;2023-07-29T09:49:50;34.00;99.90
43185;DHT22;28803;52.308;19.096;2023-07-29T09:52:19;36.40;99.90
43185;DHT22;28803;52.308;19.096;2023-07-29T09:54:47;37.60;1.00
43185;DHT22;28803;52.308;19.096;2023-07-29T09:57:16;36.30;99.90
43185;DHT22;28803;52.308;19.096;2023-07-29T09:59:53;33.90;99.90
43185;DHT22;28803;52.308;19.096;2023-07-29T10:02:20;32.00;99.90
43185;DHT22;28803;52.308;19.096;2023-07-29T10:04:49;31.50;99.90
43185;DHT22;28803;52.308;19.096;2023-07-29T10:07:17;34.30;99.90
43185;DHT22;28803;52.308;19.096;2023-07-29T10:09:46;37.10;99.90
43185;DHT22;28803;52.308;19.096;2023-07-29T10:12:14;39.10;1.00
43185;DHT22;28803;52.308;19.096;2023-07-29T10:14:46;38.00;99.90
43185;DHT22;28803;52.308;19.096;2023-07-29T10:17:16;38.10;99.90
43185;DHT22;28803;52.308;19.096;2023-07-29T10:19:44;41.40;99.90
43185;DHT22;28803;52.308;19.096;2023-07-29T10:22:13;42.70;1.00
43185;DHT22;28803;52.308;19.096;2023-07-29T10:24:47;42.90;1.00
43185;DHT22;28803;52.308;19.096;2023-07-29T10:27:17;43.90;99.90
43185;DHT22;28803;52.308;19.096;2023-07-29T10:29:46;44.10;46.90
43185;DHT22;28803;52.308;19.096;2023-07-29T10:32:13;44.90;99.90
43185;DHT22;28803;52.308;19.096;2023-07-29T10:34:42;44.90;1.00
43185;DHT22;28803;52.308;19.096;2023-07-29T10:37:09;43.30;99.90
43185;DHT22;28803;52.308;19.096;2023-07-29T10:39:38;41.90;99.90
43185;DHT22;28803;52.308;19.096;2023-07-29T10:42:07;37.30;99.90
43185;DHT22;28803;52.308;19.096;2023-07-29T10:49:45;34.30;68.80
43185;DHT22;28803;52.308;19.096;2023-07-29T10:52:16;35.70;99.90
43185;DHT22;28803;52.308;19.096;2023-07-29T10:54:48;35.40;99.90
43185;DHT22;28803;52.308;19.096;2023-07-29T10:57:30;34.00;98.80
43185;DHT22;28803;52.308;19.096;2023-07-29T10:59:58;33.20;72.80
43185;DHT22;28803;52.308;19.096;2023-07-29T11:02:36;33.80;1.00
43185;DHT22;28803;52.308;19.096;2023-07-29T11:05:15;33.70;99.90
43185;DHT22;28803;52.308;19.096;2023-07-29T11:07:48;33.80;99.90
43185;DHT22;28803;52.308;19.096;2023-07-29T11:10:16;33.80;99.90
43185;DHT22;28803;52.308;19.096;2023-07-29T11:12:48;34.10;99.90
43185;DHT22;28803;52.308;19.096;2023-07-29T11:15:22;32.50;93.20
43185;DHT22;28803;52.308;19.096;2023-07-29T11:17:57;32.40;99.90
43185;DHT22;28803;52.308;19.096;2023-07-29T11:20:27;31.80;1.00
43185;DHT22;28803;52.308;19.096;2023-07-29T11:22:56;32.00;1.00
43185;DHT22;28803;52.308;19.096;2023-07-29T11:25:26;32.40;1.00
43185;DHT22;28803;52.308;19.096;2023-07-29T11:27:55;32.80;1.00
43185;DHT22;28803;52.308;19.096;2023-07-29T11:30:24;33.20;1.00
43185;DHT22;28803;52.308;19.096;2023-07-29T11:32:54;33.40;1.00
43185;DHT22;28803;52.308;19.096;2023-07-29T11:35:23;32.90;1.00
43185;DHT22;28803;52.308;19.096;2023-07-29T11:37:52;32.00;1.00
43185;DHT22;28803;52.308;19.096;2023-07-29T11:40:21;31.00;1.00
43185;DHT22;28803;52.308;19.096;2023-07-29T11:42:50;30.20;99.90
43185;DHT22;28803;52.308;19.096;2023-07-29T11:45:19;30.10;99.90
43185;DHT22;28803;52.308;19.096;2023-07-29T11:47:47;30.80;99.90
43185;DHT22;28803;52.308;19.096;2023-07-29T11:50:15;30.80;99.90
43185;DHT22;28803;52.308;19.096;2023-07-29T11:52:45;31.10;99.90
43185;DHT22;28803;52.308;19.096;2023-07-29T11:55:14;31.00;99.90
43185;DHT22;28803;52.308;19.096;2023-07-29T11:57:43;31.30;99.90
43185;DHT22;28803;52.308;19.096;2023-07-29T12:00:11;31.50;99.90
43185;DHT22;28803;52.308;19.096;2023-07-29T12:02:41;31.70;99.90
43185;DHT22;28803;52.308;19.096;2023-07-29T12:05:13;32.00;99.90
43185;DHT22;28803;52.308;19.096;2023-07-29T12:07:42;32.00;99.90
43185;DHT22;28803;52.308;19.096;2023-07-29T12:10:11;31.90;99.90
43185;DHT22;28803;52.308;19.096;2023-07-29T12:12:45;31.90;99.90
43185;DHT22;28803;52.308;19.096;2023-07-29T12:15:13;32.00;99.90
43185;DHT22;28803;52.308;19.096;2023-07-29T12:17:41;31.90;99.90
43185;DHT22;28803;52.308;19.096;2023-07-29T12:20:10;31.80;99.90
43185;DHT22;28803;52.308;19.096;2023-07-29T12:22:38;31.80;99.90
43185;DHT22;28803;52.308;19.096;2023-07-29T12:25:06;31.80;99.90
43185;DHT22;28803;52.308;19.096;2023-07-29T12:27:34;31.60;99.90
43185;DHT22;28803;52.308;19.096;2023-07-29T12:30:02;31.60;99.90
43185;DHT22;28803;52.308;19.096;2023-07-29T12:32:32;31.70;99.90
43185;DHT22;28803;52.308;19.096;2023-07-29T12:35:00;31.60;99.90
43185;DHT22;28803;52.308;19.096;2023-07-29T12:37:36;31.40;99.90
43185;DHT22;28803;52.308;19.096;2023-07-29T12:40:06;31.20;99.90
43185;DHT22;28803;52.308;19.096;2023-07-29T12:42:34;31.10;99.90
43185;DHT22;28803;52.308;19.096;2023-07-29T12:45:01;31.20;99.90
43185;DHT22;28803;52.308;19.096;2023-07-29T12:47:28;31.20;99.90
43185;DHT22;28803;52.308;19.096;2023-07-29T12:49:56;31.00;99.90
43185;DHT22;28803;52.308;19.096;2023-07-29T12:52:23;31.00;99.90
43185;DHT22;28803;52.308;19.096;2023-07-29T12:54:50;31.00;99.90
43185;DHT22;28803;52.308;19.096;2023-07-29T12:57:18;31.10;99.90
43185;DHT22;28803;52.308;19.096;2023-07-29T12:59:45;31.00;99.90
43185;DHT22;28803;52.308;19.096;2023-07-29T13:02:24;31.00;99.90
43185;DHT22;28803;52.308;19.096;2023-07-29T13:04:52;31.00;99.90
43185;DHT22;28803;52.308;19.096;2023-07-29T13:07:19;31.00;99.90
43185;DHT22;28803;52.308;19.096;2023-07-29T13:09:47;31.00;99.90
43185;DHT22;28803;52.308;19.096;2023-07-29T13:12:14;30.90;99.90
43185;DHT22;28803;52.308;19.096;2023-07-29T13:14:41;30.80;99.90
43185;DHT22;28803;52.308;19.096;2023-07-29T13:17:08;30.90;99.90
43185;DHT22;28803;52.308;19.096;2023-07-29T13:19:36;31.00;99.90
43185;DHT22;28803;52.308;19.096;2023-07-29T13:22:03;31.00;99.90
43185;DHT22;28803;52.308;19.096;2023-07-29T13:24:31;31.00;99.90
43185;DHT22;28803;52.308;19.096;2023-07-29T13:26:59;31.30;99.90
43185;DHT22;28803;52.308;19.096;2023-07-29T13:29:27;31.30;99.90
43185;DHT22;28803;52.308;19.096;2023-07-29T13:34:22;30.90;99.90
43185;DHT22;28803;52.308;19.096;2023-07-29T13:36:49;30.70;99.90
43185;DHT22;28803;52.308;19.096;2023-07-29T13:39:16;30.60;99.90
43185;DHT22;28803;52.308;19.096;2023-07-29T13:41:43;30.50;99.90
43185;DHT22;28803;52.308;19.096;2023-07-29T13:44:11;30.60;99.90
43185;DHT22;28803;52.308;19.096;2023-07-29T13:46:38;30.70;99.90
43185;DHT22;28803;52.308;19.096;2023-07-29T13:49:06;31.00;99.90
43185;DHT22;28803;52.308;19.096;2023-07-29T13:51:33;31.00;99.90
43185;DHT22;28803;52.308;19.096;2023-07-29T13:54:01;31.10;99.90
43185;DHT22;28803;52.308;19.096;2023-07-29T13:56:28;31.10;99.90
43185;DHT22;28803;52.308;19.096;2023-07-29T13:58:56;32.40;99.90
43185;DHT22;28803;52.308;19.096;2023-07-29T14:01:23;34.20;99.90
43185;DHT22;28803;52.308;19.096;2023-07-29T14:03:51;35.80;99.90
43185;DHT22;28803;52.308;19.096;2023-07-29T14:06:18;36.60;1.00
43185;DHT22;28803;52.308;19.096;2023-07-29T14:08:54;36.80;1.00
43185;DHT22;28803;52.308;19.096;2023-07-29T14:11:21;37.50;1.00
43185;DHT22;28803;52.308;19.096;2023-07-29T14:13:49;37.80;1.00
43185;DHT22;28803;52.308;19.096;2023-07-29T14:16:16;37.80;1.00
43185;DHT22;28803;52.308;19.096;2023-07-29T14:18:43;37.60;1.00
43185;DHT22;28803;52.308;19.096;2023-07-29T14:21:10;37.40;1.00
43185;DHT22;28803;52.308;19.096;2023-07-29T14:23:38;36.40;1.00
43185;DHT22;28803;52.308;19.096;2023-07-29T14:26:05;35.30;1.00
43185;DHT22;28803;52.308;19.096;2023-07-29T14:28:32;35.20;1.00
43185;DHT22;28803;52.308;19.096;2023-07-29T14:31:00;34.90;1.00
43185;DHT22;28803;52.308;19.096;2023-07-29T14:33:40;34.20;1.00
43185;DHT22;28803;52.308;19.096;2023-07-29T14:36:07;34.00;1.00
43185;DHT22;28803;52.308;19.096;2023-07-29T14:38:36;34.30;1.00
43185;DHT22;28803;52.308;19.096;2023-07-29T14:41:04;35.00;1.00
43185;DHT22;28803;52.308;19.096;2023-07-29T14:43:31;34.90;1.00
43185;DHT22;28803;52.308;19.096;2023-07-29T14:45:59;35.00;1.00
43185;DHT22;28803;52.308;19.096;2023-07-29T14:48:27;35.40;1.00
43185;DHT22;28803;52.308;19.096;2023-07-29T14:50:54;36.20;1.00
43185;DHT22;28803;52.308;19.096;2023-07-29T14:53:22;35.80;1.00
43185;DHT22;28803;52.308;19.096;2023-07-29T14:55:49;35.50;1.00
43185;DHT22;28803;52.308;19.096;2023-07-29T14:58:16;36.10;1.00
43185;DHT22;28803;52.308;19.096;2023-07-29T15:00:44;36.50;1.00
43185;DHT22;28803;52.308;19.096;2023-07-29T15:03:11;36.20;1.00
43185;DHT22;28803;52.308;19.096;2023-07-29T15:05:39;36.00;1.00
43185;DHT22;28803;52.308;19.096;2023-07-29T15:08:07;36.20;1.00
43185;DHT22;28803;52.308;19.096;2023-07-29T15:10:35;35.90;1.00
43185;DHT22;28803;52.308;19.096;2023-07-29T15:13:02;34.60;1.00
43185;DHT22;28803;52.308;19.096;2023-07-29T15:15:30;33.50;1.00
43185;DHT22;28803;52.308;19.096;2023-07-29T15:17:57;32.60;99.90
43185;DHT22;28803;52.308;19.096;2023-07-29T15:20:24;31.70;99.90
43185;DHT22;28803;52.308;19.096;2023-07-29T15:22:52;30.90;99.90
43185;DHT22;28803;52.308;19.096;2023-07-29T15:25:19;30.10;99.90
43185;DHT22;28803;52.308;19.096;2023-07-29T15:27:47;28.90;99.90
43185;DHT22;28803;52.308;19.096;2023-07-29T15:30:14;28.80;99.90
43185;DHT22;28803;52.308;19.096;2023-07-29T15:32:42;28.50;99.90
43185;DHT22;28803;52.308;19.096;2023-07-29T15:35:09;28.20;72.70
43185;DHT22;28803;52.308;19.096;2023-07-29T15:37:37;28.10;25.40
43185;DHT22;28803;52.308;19.096;2023-07-29T15:40:05;28.10;19.10
43185;DHT22;28803;52.308;19.096;2023-07-29T15:42:34;28.00;13.90
43185;DHT22;28803;52.308;19.096;2023-07-29T15:45:02;27.90;52.30
43185;DHT22;28803;52.308;19.096;2023-07-29T15:47:29;27.80;7.60
43185;DHT22;28803;52.308;19.096;2023-07-29T15:49:57;27.80;1.00